sensor_id;sensor_type;location;lat;lon;timestamp;P1;P2;P0
35654;PMS1003;21773;50.010;19.972;2023-08-06T00:00:38;17.40;15.00;12.80
35654;PMS1003;21773;50.010;19.972;2023-08-06T00:03:43;21.40;19.40;17.00
35654;PMS1003;21773;50.010;19.972;2023-08-06T00:06:46;21.00;19.80;15.00
35654;PMS1003;21773;50.010;19.972;2023-08-06T00:09:49;20.40;18.40;15.00
35654;PMS1003;21773;50.010;19.972;2023-08-06T00:12:53;22.00;19.00;16.00
35654;PMS1003;21773;50.010;19.972;2023-08-06T00:16:07;21.60;19.00;17.00
35654;PMS1003;21773;50.010;19.972;2023-08-06T00:19:12;25.00;21.60;16.60
35654;PMS1003;21773;50.010;19.972;2023-08-06T00:22:16;23.00;20.00;15.00
35654;PMS1003;21773;50.010;19.972;2023-08-06T00:25:19;24.40;22.40;18.00
35654;PMS1003;21773;50.010;19.972;2023-08-06T00:28:22;25.40;20.00;16.00
35654;PMS1003;21773;50.010;19.972;2023-08-06T00:31:25;26.40;23.00;18.00
35654;PMS1003;21773;50.010;19.972;2023-08-06T00:34:30;24.20;21.00;17.00
35654;PMS1003;21773;50.010;19.972;2023-08-06T00:37:33;23.50;21.00;17.50
35654;PMS1003;21773;50.010;19.972;2023-08-06T00:40:36;23.00;22.00;17.60
35654;PMS1003;21773;50.010;19.972;2023-08-06T00:43:40;25.20;20.80;18.00
35654;PMS1003;21773;50.010;19.972;2023-08-06T00:46:43;25.00;22.00;16.60
35654;PMS1003;21773;50.010;19.972;2023-08-06T00:49:48;24.60;22.00;18.00
35654;PMS1003;21773;50.010;19.972;2023-08-06T00:52:51;29.00;24.60;20.00
35654;PMS1003;21773;50.010;19.972;2023-08-06T00:55:55;22.60;20.60;17.00
35654;PMS1003;21773;50.010;19.972;2023-08-06T00:58:58;22.00;20.00;16.67
35654;PMS1003;21773;50.010;19.972;2023-08-06T01:02:02;21.20;17.20;15.00
35654;PMS1003;21773;50.010;19.972;2023-08-06T01:05:06;20.00;18.00;14.00
35654;PMS1003;21773;50.010;19.972;2023-08-06T01:08:13;19.80;17.00;14.00
35654;PMS1003;21773;50.010;19.972;2023-08-06T01:11:30;21.33;18.33;15.33
35654;PMS1003;21773;50.010;19.972;2023-08-06T01:14:44;24.00;20.00;15.00
35654;PMS1003;21773;50.010;19.972;2023-08-06T01:17:53;24.00;21.00;16.25
35654;PMS1003;21773;50.010;19.972;2023-08-06T01:20:57;24.00;21.25;15.75
35654;PMS1003;21773;50.010;19.972;2023-08-06T01:24:01;28.75;26.00;20.00
35654;PMS1003;21773;50.010;19.972;2023-08-06T01:27:06;28.25;25.00;19.00
35654;PMS1003;21773;50.010;19.972;2023-08-06T01:30:15;32.00;28.00;20.00
35654;PMS1003;21773;50.010;19.972;2023-08-06T01:33:21;27.00;22.25;17.25
35654;PMS1003;21773;50.010;19.972;2023-08-06T01:36:26;24.20;20.60;16.60
35654;PMS1003;21773;50.010;19.972;2023-08-06T01:39:33;26.75;23.00;19.25
35654;PMS1003;21773;50.010;19.972;2023-08-06T01:42:38;21.00;19.75;15.25
35654;PMS1003;21773;50.010;19.972;2023-08-06T01:45:42;22.00;19.00;15.00
35654;PMS1003;21773;50.010;19.972;2023-08-06T01:48:45;22.00;19.40;16.00
35654;PMS1003;21773;50.010;19.972;2023-08-06T01:51:49;26.00;19.50;15.00
35654;PMS1003;21773;50.010;19.972;2023-08-06T01:54:53;23.00;19.40;15.00
35654;PMS1003;21773;50.010;19.972;2023-08-06T01:57:56;19.00;17.00;14.50
35654;PMS1003;21773;50.010;19.972;2023-08-06T02:01:00;18.00;17.00;14.40
35654;PMS1003;21773;50.010;19.972;2023-08-06T02:04:04;21.00;19.00;14.00
35654;PMS1003;21773;50.010;19.972;2023-08-06T02:07:08;19.60;18.60;14.00
35654;PMS1003;21773;50.010;19.972;2023-08-06T02:10:11;21.00;15.00;13.75
35654;PMS1003;21773;50.010;19.972;2023-08-06T02:13:15;16.60;14.00;10.60
35654;PMS1003;21773;50.010;19.972;2023-08-06T02:16:18;19.20;16.00;12.40
35654;PMS1003;21773;50.010;19.972;2023-08-06T02:19:22;18.75;16.00;12.00
35654;PMS1003;21773;50.010;19.972;2023-08-06T02:22:26;18.00;16.00;12.60
35654;PMS1003;21773;50.010;19.972;2023-08-06T02:25:29;19.40;15.80;13.00
35654;PMS1003;21773;50.010;19.972;2023-08-06T02:28:34;17.60;16.00;13.00
35654;PMS1003;21773;50.010;19.972;2023-08-06T02:31:37;15.00;14.50;12.50
35654;PMS1003;21773;50.010;19.972;2023-08-06T02:34:40;16.00;15.00;14.00
35654;PMS1003;21773;50.010;19.972;2023-08-06T02:37:45;15.20;13.20;10.80
35654;PMS1003;21773;50.010;19.972;2023-08-06T02:40:48;16.60;15.60;13.00
35654;PMS1003;21773;50.010;19.972;2023-08-06T02:43:52;17.00;15.00;12.00
35654;PMS1003;21773;50.010;19.972;2023-08-06T02:46:56;14.75;14.00;11.75
35654;PMS1003;21773;50.010;19.972;2023-08-06T02:49:59;18.75;17.50;14.75
35654;PMS1003;21773;50.010;19.972;2023-08-06T02:53:05;21.00;16.00;13.00
35654;PMS1003;21773;50.010;19.972;2023-08-06T02:56:08;16.40;15.00;11.80
35654;PMS1003;21773;50.010;19.972;2023-08-06T02:59:31;20.00;17.00;14.00
35654;PMS1003;21773;50.010;19.972;2023-08-06T03:02:55;16.00;15.00;12.60
35654;PMS1003;21773;50.010;19.972;2023-08-06T03:06:22;17.00;16.00;12.00
35654;PMS1003;21773;50.010;19.972;2023-08-06T03:09:29;18.40;14.40;11.40
35654;PMS1003;21773;50.010;19.972;2023-08-06T03:12:33;20.60;19.00;14.00
35654;PMS1003;21773;50.010;19.972;2023-08-06T03:15:37;18.00;15.00;12.00
35654;PMS1003;21773;50.010;19.972;2023-08-06T03:18:43;18.40;14.60;12.00
35654;PMS1003;21773;50.010;19.972;2023-08-06T03:21:47;18.40;16.00;15.00
35654;PMS1003;21773;50.010;19.972;2023-08-06T03:24:52;16.40;14.80;11.80
35654;PMS1003;21773;50.010;19.972;2023-08-06T03:27:58;15.80;15.00;12.00
35654;PMS1003;21773;50.010;19.972;2023-08-06T03:31:02;16.00;14.00;12.00
35654;PMS1003;21773;50.010;19.972;2023-08-06T03:34:14;16.20;14.20;12.00
35654;PMS1003;21773;50.010;19.972;2023-08-06T03:37:17;14.50;12.00;10.50
35654;PMS1003;21773;50.010;19.972;2023-08-06T03:40:22;16.00;14.00;11.60
35654;PMS1003;21773;50.010;19.972;2023-08-06T03:43:25;16.00;15.00;11.80
35654;PMS1003;21773;50.010;19.972;2023-08-06T03:46:29;17.00;14.40;11.40
35654;PMS1003;21773;50.010;19.972;2023-08-06T03:49:35;14.50;12.00;10.00
35654;PMS1003;21773;50.010;19.972;2023-08-06T03:52:39;14.00;13.00;11.00
35654;PMS1003;21773;50.010;19.972;2023-08-06T03:55:43;14.60;13.60;11.00
35654;PMS1003;21773;50.010;19.972;2023-08-06T03:58:47;16.00;12.00;10.00
35654;PMS1003;21773;50.010;19.972;2023-08-06T04:01:50;16.00;13.00;11.00
35654;PMS1003;21773;50.010;19.972;2023-08-06T04:04:54;18.40;15.00;12.00
35654;PMS1003;21773;50.010;19.972;2023-08-06T04:07:57;18.20;16.60;14.00
35654;PMS1003;21773;50.010;19.972;2023-08-06T04:11:02;17.67;17.00;14.00
35654;PMS1003;21773;50.010;19.972;2023-08-06T04:14:06;17.00;16.00;14.00
35654;PMS1003;21773;50.010;19.972;2023-08-06T04:17:09;17.00;15.40;12.00
35654;PMS1003;21773;50.010;19.972;2023-08-06T04:20:12;14.00;14.00;12.00
35654;PMS1003;21773;50.010;19.972;2023-08-06T04:23:16;16.00;14.00;12.20
35654;PMS1003;21773;50.010;19.972;2023-08-06T04:26:21;17.00;16.00;13.00
35654;PMS1003;21773;50.010;19.972;2023-08-06T04:29:25;16.60;14.00;12.00
35654;PMS1003;21773;50.010;19.972;2023-08-06T04:32:28;16.00;13.00;11.00
35654;PMS1003;21773;50.010;19.972;2023-08-06T04:35:33;16.00;14.00;11.40
35654;PMS1003;21773;50.010;19.972;2023-08-06T04:38:36;14.00;12.00;11.00
35654;PMS1003;21773;50.010;19.972;2023-08-06T04:41:41;14.00;12.00;10.00
35654;PMS1003;21773;50.010;19.972;2023-08-06T04:44:45;11.25;10.25;8.50
35654;PMS1003;21773;50.010;19.972;2023-08-06T04:47:48;16.50;13.25;11.00
35654;PMS1003;21773;50.010;19.972;2023-08-06T04:50:52;11.40;10.60;8.00
35654;PMS1003;21773;50.010;19.972;2023-08-06T04:53:56;14.00;13.00;10.00
35654;PMS1003;21773;50.010;19.972;2023-08-06T04:57:01;13.75;12.00;9.00
35654;PMS1003;21773;50.010;19.972;2023-08-06T05:00:05;14.00;13.00;11.00
35654;PMS1003;21773;50.010;19.972;2023-08-06T05:03:09;12.60;11.60;9.60
35654;PMS1003;21773;50.010;19.972;2023-08-06T05:06:12;13.60;12.00;9.00
35654;PMS1003;21773;50.010;19.972;2023-08-06T05:09:15;14.80;12.00;10.00
35654;PMS1003;21773;50.010;19.972;2023-08-06T05:12:19;13.00;12.00;10.00
35654;PMS1003;21773;50.010;19.972;2023-08-06T05:15:23;14.00;12.00;10.00
35654;PMS1003;21773;50.010;19.972;2023-08-06T05:18:27;15.40;14.00;12.40
35654;PMS1003;21773;50.010;19.972;2023-08-06T05:21:32;13.00;13.00;11.00
35654;PMS1003;21773;50.010;19.972;2023-08-06T05:24:35;10.60;9.60;8.60
35654;PMS1003;21773;50.010;19.972;2023-08-06T05:27:40;12.40;10.60;9.60
35654;PMS1003;21773;50.010;19.972;2023-08-06T05:30:43;12.60;11.00;9.60
35654;PMS1003;21773;50.010;19.972;2023-08-06T05:33:46;11.40;10.00;8.00
35654;PMS1003;21773;50.010;19.972;2023-08-06T05:36:50;9.00;9.00;7.20
35654;PMS1003;21773;50.010;19.972;2023-08-06T05:39:54;9.00;9.00;8.00
35654;PMS1003;21773;50.010;19.972;2023-08-06T05:42:58;11.40;10.40;9.00
35654;PMS1003;21773;50.010;19.972;2023-08-06T05:46:02;10.50;10.00;8.00
35654;PMS1003;21773;50.010;19.972;2023-08-06T05:49:06;10.00;9.00;7.00
35654;PMS1003;21773;50.010;19.972;2023-08-06T05:52:09;10.00;9.00;7.00
35654;PMS1003;21773;50.010;19.972;2023-08-06T05:55:13;10.00;9.00;8.00
35654;PMS1003;21773;50.010;19.972;2023-08-06T05:58:17;11.60;10.60;8.00
35654;PMS1003;21773;50.010;19.972;2023-08-06T06:01:21;11.40;10.00;9.00
35654;PMS1003;21773;50.010;19.972;2023-08-06T06:04:25;11.80;10.00;8.00
35654;PMS1003;21773;50.010;19.972;2023-08-06T06:07:28;9.50;9.00;8.00
35654;PMS1003;21773;50.010;19.972;2023-08-06T06:10:31;13.00;11.00;9.60
35654;PMS1003;21773;50.010;19.972;2023-08-06T06:13:36;13.50;11.50;9.50
35654;PMS1003;21773;50.010;19.972;2023-08-06T06:16:39;9.75;9.75;8.75
35654;PMS1003;21773;50.010;19.972;2023-08-06T06:19:42;13.60;11.00;9.00
35654;PMS1003;21773;50.010;19.972;2023-08-06T06:22:46;12.00;9.00;7.00
35654;PMS1003;21773;50.010;19.972;2023-08-06T06:25:49;9.33;9.00;7.00
35654;PMS1003;21773;50.010;19.972;2023-08-06T06:28:54;10.25;10.00;8.00
35654;PMS1003;21773;50.010;19.972;2023-08-06T06:31:58;8.40;8.00;7.00
35654;PMS1003;21773;50.010;19.972;2023-08-06T06:35:01;11.40;11.00;10.00
35654;PMS1003;21773;50.010;19.972;2023-08-06T06:38:04;8.00;8.00;6.00
35654;PMS1003;21773;50.010;19.972;2023-08-06T06:41:07;8.60;7.00;6.00
35654;PMS1003;21773;50.010;19.972;2023-08-06T06:44:13;11.20;10.20;9.00
35654;PMS1003;21773;50.010;19.972;2023-08-06T06:47:17;10.00;9.00;7.40
35654;PMS1003;21773;50.010;19.972;2023-08-06T06:50:22;10.00;10.00;9.00
35654;PMS1003;21773;50.010;19.972;2023-08-06T06:53:25;10.50;9.50;7.50
35654;PMS1003;21773;50.010;19.972;2023-08-06T06:56:29;10.40;9.20;7.20
35654;PMS1003;21773;50.010;19.972;2023-08-06T06:59:34;12.00;11.00;8.00
35654;PMS1003;21773;50.010;19.972;2023-08-06T07:02:37;9.25;8.75;7.00
35654;PMS1003;21773;50.010;19.972;2023-08-06T07:05:41;11.00;10.00;9.00
35654;PMS1003;21773;50.010;19.972;2023-08-06T07:08:45;11.60;10.60;8.60
35654;PMS1003;21773;50.010;19.972;2023-08-06T07:11:48;8.20;8.00;7.00
35654;PMS1003;21773;50.010;19.972;2023-08-06T07:14:53;10.00;9.00;8.00
35654;PMS1003;21773;50.010;19.972;2023-08-06T07:17:56;9.00;9.00;7.50
35654;PMS1003;21773;50.010;19.972;2023-08-06T07:21:00;9.40;8.00;7.00
35654;PMS1003;21773;50.010;19.972;2023-08-06T07:24:03;9.00;8.33;7.00
35654;PMS1003;21773;50.010;19.972;2023-08-06T07:27:06;8.00;7.00;6.60
35654;PMS1003;21773;50.010;19.972;2023-08-06T07:30:11;8.00;6.00;5.75
35654;PMS1003;21773;50.010;19.972;2023-08-06T07:33:14;8.60;8.40;7.40
35654;PMS1003;21773;50.010;19.972;2023-08-06T07:36:18;7.75;6.75;5.75
35654;PMS1003;21773;50.010;19.972;2023-08-06T07:39:21;7.00;5.00;4.00
35654;PMS1003;21773;50.010;19.972;2023-08-06T07:42:25;1.00;1.00;1.00
35654;PMS1003;21773;50.010;19.972;2023-08-06T07:45:33;1.00;1.00;1.00
35654;PMS1003;21773;50.010;19.972;2023-08-06T07:48:37;2.00;2.00;2.00
35654;PMS1003;21773;50.010;19.972;2023-08-06T07:51:40;1.00;1.00;1.00
35654;PMS1003;21773;50.010;19.972;2023-08-06T07:54:44;2.00;2.00;2.00
35654;PMS1003;21773;50.010;19.972;2023-08-06T07:57:47;1.00;1.00;1.00
35654;PMS1003;21773;50.010;19.972;2023-08-06T08:00:52;2.00;2.00;2.00
35654;PMS1003;21773;50.010;19.972;2023-08-06T08:03:55;1.00;1.00;1.00
35654;PMS1003;21773;50.010;19.972;2023-08-06T08:06:58;0.25;0.25;0.25
35654;PMS1003;21773;50.010;19.972;2023-08-06T08:10:01;0.00;0.00;0.00
35654;PMS1003;21773;50.010;19.972;2023-08-06T08:13:05;1.00;1.00;1.00
35654;PMS1003;21773;50.010;19.972;2023-08-06T08:16:10;0.00;0.00;0.00
35654;PMS1003;21773;50.010;19.972;2023-08-06T08:19:13;0.00;0.00;0.00
35654;PMS1003;21773;50.010;19.972;2023-08-06T08:22:16;1.00;1.00;1.00
35654;PMS1003;21773;50.010;19.972;2023-08-06T08:25:20;0.00;0.00;0.00
35654;PMS1003;21773;50.010;19.972;2023-08-06T08:28:23;0.00;0.00;0.00
35654;PMS1003;21773;50.010;19.972;2023-08-06T08:31:27;1.00;1.00;0.00
35654;PMS1003;21773;50.010;19.972;2023-08-06T08:34:31;1.00;1.00;0.00
35654;PMS1003;21773;50.010;19.972;2023-08-06T08:37:34;2.00;1.00;1.00
35654;PMS1003;21773;50.010;19.972;2023-08-06T08:40:39;0.00;0.00;0.00
35654;PMS1003;21773;50.010;19.972;2023-08-06T08:43:48;1.00;1.00;1.00
35654;PMS1003;21773;50.010;19.972;2023-08-06T08:46:54;1.60;1.60;1.60
35654;PMS1003;21773;50.010;19.972;2023-08-06T08:49:58;1.00;1.00;1.00
35654;PMS1003;21773;50.010;19.972;2023-08-06T08:53:03;1.00;1.00;1.00
35654;PMS1003;21773;50.010;19.972;2023-08-06T08:56:08;0.00;0.00;0.00
35654;PMS1003;21773;50.010;19.972;2023-08-06T08:59:15;0.00;0.00;0.00
35654;PMS1003;21773;50.010;19.972;2023-08-06T09:02:19;1.00;1.00;1.00
35654;PMS1003;21773;50.010;19.972;2023-08-06T09:05:24;1.00;1.00;1.00
35654;PMS1003;21773;50.010;19.972;2023-08-06T09:08:34;0.00;0.00;0.00
35654;PMS1003;21773;50.010;19.972;2023-08-06T09:11:42;0.00;0.00;0.00
35654;PMS1003;21773;50.010;19.972;2023-08-06T09:14:46;0.75;0.75;0.75
35654;PMS1003;21773;50.010;19.972;2023-08-06T09:17:51;2.00;1.00;1.00
35654;PMS1003;21773;50.010;19.972;2023-08-06T09:20:54;0.00;0.00;0.00
35654;PMS1003;21773;50.010;19.972;2023-08-06T09:23:58;2.60;2.00;2.00
35654;PMS1003;21773;50.010;19.972;2023-08-06T09:27:02;1.00;0.20;0.20
35654;PMS1003;21773;50.010;19.972;2023-08-06T09:30:06;0.00;0.00;0.00
35654;PMS1003;21773;50.010;19.972;2023-08-06T09:33:11;1.00;1.00;1.00
35654;PMS1003;21773;50.010;19.972;2023-08-06T09:36:21;1.00;1.00;1.00
35654;PMS1003;21773;50.010;19.972;2023-08-06T09:39:27;1.00;1.00;1.00
35654;PMS1003;21773;50.010;19.972;2023-08-06T09:42:36;1.00;1.00;1.00
35654;PMS1003;21773;50.010;19.972;2023-08-06T09:45:41;1.80;1.00;1.00
35654;PMS1003;21773;50.010;19.972;2023-08-06T09:48:46;1.00;1.00;1.00
35654;PMS1003;21773;50.010;19.972;2023-08-06T09:51:50;1.00;1.00;1.00
35654;PMS1003;21773;50.010;19.972;2023-08-06T09:54:57;1.00;1.00;1.00
35654;PMS1003;21773;50.010;19.972;2023-08-06T09:58:02;1.00;1.00;1.00
35654;PMS1003;21773;50.010;19.972;2023-08-06T10:01:07;1.00;1.00;1.00
35654;PMS1003;21773;50.010;19.972;2023-08-06T10:04:13;1.00;1.00;1.00
35654;PMS1003;21773;50.010;19.972;2023-08-06T10:07:25;0.00;0.00;0.00
35654;PMS1003;21773;50.010;19.972;2023-08-06T10:10:29;1.00;1.00;1.00
35654;PMS1003;21773;50.010;19.972;2023-08-06T10:13:33;0.25;0.25;0.25
35654;PMS1003;21773;50.010;19.972;2023-08-06T10:16:39;1.00;1.00;1.00
35654;PMS1003;21773;50.010;19.972;2023-08-06T10:19:44;1.00;1.00;0.00
35654;PMS1003;21773;50.010;19.972;2023-08-06T10:22:59;1.00;1.00;1.00
35654;PMS1003;21773;50.010;19.972;2023-08-06T10:26:04;1.20;1.20;1.20
35654;PMS1003;21773;50.010;19.972;2023-08-06T10:32:47;1.00;1.00;1.00
35654;PMS1003;21773;50.010;19.972;2023-08-06T10:35:52;1.00;1.00;1.00
35654;PMS1003;21773;50.010;19.972;2023-08-06T10:39:06;1.00;1.00;1.00
35654;PMS1003;21773;50.010;19.972;2023-08-06T10:42:31;0.00;0.00;0.00
35654;PMS1003;21773;50.010;19.972;2023-08-06T10:45:34;1.00;1.00;1.00
35654;PMS1003;21773;50.010;19.972;2023-08-06T10:48:39;1.00;1.00;0.75
35654;PMS1003;21773;50.010;19.972;2023-08-06T10:51:45;1.00;1.00;1.00
35654;PMS1003;21773;50.010;19.972;2023-08-06T10:54:49;1.00;1.00;1.00
35654;PMS1003;21773;50.010;19.972;2023-08-06T10:57:52;2.00;2.00;2.00
35654;PMS1003;21773;50.010;19.972;2023-08-06T11:00:58;0.80;0.80;0.20
35654;PMS1003;21773;50.010;19.972;2023-08-06T11:04:02;1.00;1.00;1.00
35654;PMS1003;21773;50.010;19.972;2023-08-06T11:07:08;0.00;0.00;0.00
35654;PMS1003;21773;50.010;19.972;2023-08-06T11:10:12;1.00;1.00;1.00
35654;PMS1003;21773;50.010;19.972;2023-08-06T11:13:16;1.00;1.00;1.00
35654;PMS1003;21773;50.010;19.972;2023-08-06T11:16:20;1.00;1.00;1.00
35654;PMS1003;21773;50.010;19.972;2023-08-06T11:19:26;1.00;1.00;1.00
35654;PMS1003;21773;50.010;19.972;2023-08-06T11:22:30;0.00;0.00;0.00
35654;PMS1003;21773;50.010;19.972;2023-08-06T11:25:36;1.00;1.00;1.00
35654;PMS1003;21773;50.010;19.972;2023-08-06T11:28:39;1.00;1.00;1.00
35654;PMS1003;21773;50.010;19.972;2023-08-06T11:31:43;0.00;0.00;0.00
35654;PMS1003;21773;50.010;19.972;2023-08-06T11:34:46;1.00;1.00;1.00
35654;PMS1003;21773;50.010;19.972;2023-08-06T11:37:51;1.50;1.50;1.50
35654;PMS1003;21773;50.010;19.972;2023-08-06T11:40:54;2.00;2.00;2.00
35654;PMS1003;21773;50.010;19.972;2023-08-06T11:43:57;2.00;2.00;1.60
35654;PMS1003;21773;50.010;19.972;2023-08-06T11:47:02;0.40;0.40;0.40
35654;PMS1003;21773;50.010;19.972;2023-08-06T11:50:07;1.40;1.40;1.00
35654;PMS1003;21773;50.010;19.972;2023-08-06T11:53:13;2.00;2.00;2.00
35654;PMS1003;21773;50.010;19.972;2023-08-06T11:56:17;1.00;1.00;1.00
35654;PMS1003;21773;50.010;19.972;2023-08-06T11:59:20;0.25;0.00;0.00
35654;PMS1003;21773;50.010;19.972;2023-08-06T12:02:24;1.60;1.60;1.00
35654;PMS1003;21773;50.010;19.972;2023-08-06T12:05:30;1.00;1.00;1.00
35654;PMS1003;21773;50.010;19.972;2023-08-06T12:08:36;2.00;2.00;2.00
35654;PMS1003;21773;50.010;19.972;2023-08-06T12:11:40;1.00;1.00;1.00
35654;PMS1003;21773;50.010;19.972;2023-08-06T12:14:43;1.00;1.00;1.00
35654;PMS1003;21773;50.010;19.972;2023-08-06T12:17:46;2.00;2.00;2.00
35654;PMS1003;21773;50.010;19.972;2023-08-06T12:20:49;1.00;1.00;1.00
35654;PMS1003;21773;50.010;19.972;2023-08-06T12:23:54;1.80;1.80;1.80
35654;PMS1003;21773;50.010;19.972;2023-08-06T12:26:57;2.00;2.00;2.00
35654;PMS1003;21773;50.010;19.972;2023-08-06T12:30:00;2.00;2.00;2.00
35654;PMS1003;21773;50.010;19.972;2023-08-06T12:33:05;1.00;1.00;1.00
35654;PMS1003;21773;50.010;19.972;2023-08-06T12:36:09;2.00;2.00;2.00
35654;PMS1003;21773;50.010;19.972;2023-08-06T12:39:13;1.00;1.00;0.60
35654;PMS1003;21773;50.010;19.972;2023-08-06T12:42:17;2.00;2.00;2.00
35654;PMS1003;21773;50.010;19.972;2023-08-06T12:45:20;1.80;1.80;1.80
35654;PMS1003;21773;50.010;19.972;2023-08-06T12:48:23;2.00;2.00;2.00
35654;PMS1003;21773;50.010;19.972;2023-08-06T12:51:26;1.60;1.60;1.60
35654;PMS1003;21773;50.010;19.972;2023-08-06T12:54:31;1.00;1.00;1.00
35654;PMS1003;21773;50.010;19.972;2023-08-06T12:57:38;1.00;1.00;1.00
35654;PMS1003;21773;50.010;19.972;2023-08-06T13:00:58;0.00;0.00;0.00
35654;PMS1003;21773;50.010;19.972;2023-08-06T13:04:01;1.00;1.00;1.00
35654;PMS1003;21773;50.010;19.972;2023-08-06T13:07:24;1.00;1.00;1.00
35654;PMS1003;21773;50.010;19.972;2023-08-06T13:10:31;0.00;0.00;0.00
35654;PMS1003;21773;50.010;19.972;2023-08-06T13:13:35;1.00;1.00;1.00
35654;PMS1003;21773;50.010;19.972;2023-08-06T13:16:39;1.00;1.00;1.00
35654;PMS1003;21773;50.010;19.972;2023-08-06T13:19:43;1.40;1.40;1.40
35654;PMS1003;21773;50.010;19.972;2023-08-06T13:22:47;0.00;0.00;0.00
35654;PMS1003;21773;50.010;19.972;2023-08-06T13:25:54;2.00;1.00;1.00
35654;PMS1003;21773;50.010;19.972;2023-08-06T13:28:57;1.00;1.00;1.00
35654;PMS1003;21773;50.010;19.972;2023-08-06T13:32:01;2.00;2.00;1.40
35654;PMS1003;21773;50.010;19.972;2023-08-06T13:35:04;1.00;1.00;1.00
35654;PMS1003;21773;50.010;19.972;2023-08-06T13:38:08;2.00;2.00;2.00
35654;PMS1003;21773;50.010;19.972;2023-08-06T13:41:12;1.00;1.00;1.00
35654;PMS1003;21773;50.010;19.972;2023-08-06T13:44:16;2.00;2.00;2.00
35654;PMS1003;21773;50.010;19.972;2023-08-06T13:47:19;1.00;1.00;0.00
35654;PMS1003;21773;50.010;19.972;2023-08-06T13:50:23;1.00;1.00;1.00
35654;PMS1003;21773;50.010;19.972;2023-08-06T13:53:30;1.40;1.40;1.40
35654;PMS1003;21773;50.010;19.972;2023-08-06T13:56:35;1.00;1.00;1.00
35654;PMS1003;21773;50.010;19.972;2023-08-06T13:59:39;1.20;1.20;1.20
35654;PMS1003;21773;50.010;19.972;2023-08-06T14:02:42;0.00;0.00;0.00
35654;PMS1003;21773;50.010;19.972;2023-08-06T14:05:47;0.00;0.00;0.00
35654;PMS1003;21773;50.010;19.972;2023-08-06T14:08:50;1.00;1.00;0.60
35654;PMS1003;21773;50.010;19.972;2023-08-06T14:11:55;0.00;0.00;0.00
35654;PMS1003;21773;50.010;19.972;2023-08-06T14:14:58;0.00;0.00;0.00
35654;PMS1003;21773;50.010;19.972;2023-08-06T14:18:02;1.00;1.00;1.00
35654;PMS1003;21773;50.010;19.972;2023-08-06T14:21:05;0.60;0.00;0.00
35654;PMS1003;21773;50.010;19.972;2023-08-06T14:24:08;1.00;1.00;1.00
35654;PMS1003;21773;50.010;19.972;2023-08-06T14:27:13;0.00;0.00;0.00
35654;PMS1003;21773;50.010;19.972;2023-08-06T14:30:17;1.00;0.00;0.00
35654;PMS1003;21773;50.010;19.972;2023-08-06T14:33:20;0.00;0.00;0.00
35654;PMS1003;21773;50.010;19.972;2023-08-06T14:36:28;0.00;0.00;0.00
35654;PMS1003;21773;50.010;19.972;2023-08-06T14:39:31;0.00;0.00;0.00
35654;PMS1003;21773;50.010;19.972;2023-08-06T14:42:36;1.00;1.00;1.00
35654;PMS1003;21773;50.010;19.972;2023-08-06T14:45:39;1.00;1.00;1.00
35654;PMS1003;21773;50.010;19.972;2023-08-06T14:48:42;2.00;2.00;1.40
35654;PMS1003;21773;50.010;19.972;2023-08-06T14:51:46;1.50;1.50;1.50
35654;PMS1003;21773;50.010;19.972;2023-08-06T14:54:49;1.00;1.00;1.00
35654;PMS1003;21773;50.010;19.972;2023-08-06T14:57:55;2.00;2.00;1.00
35654;PMS1003;21773;50.010;19.972;2023-08-06T15:00:58;2.00;2.00;2.00
35654;PMS1003;21773;50.010;19.972;2023-08-06T15:04:02;2.00;2.00;2.00
35654;PMS1003;21773;50.010;19.972;2023-08-06T15:07:05;2.00;2.00;2.00
35654;PMS1003;21773;50.010;19.972;2023-08-06T15:10:11;1.00;1.00;1.00
35654;PMS1003;21773;50.010;19.972;2023-08-06T15:13:29;2.00;1.00;1.00
35654;PMS1003;21773;50.010;19.972;2023-08-06T15:16:32;1.00;1.00;1.00
35654;PMS1003;21773;50.010;19.972;2023-08-06T15:19:36;2.00;2.00;2.00
35654;PMS1003;21773;50.010;19.972;2023-08-06T15:22:39;1.00;1.00;1.00
35654;PMS1003;21773;50.010;19.972;2023-08-06T15:25:42;0.50;0.50;0.50
35654;PMS1003;21773;50.010;19.972;2023-08-06T15:28:47;0.00;0.00;0.00
35654;PMS1003;21773;50.010;19.972;2023-08-06T15:31:50;1.00;1.00;1.00
35654;PMS1003;21773;50.010;19.972;2023-08-06T15:34:53;1.00;1.00;1.00
35654;PMS1003;21773;50.010;19.972;2023-08-06T15:37:56;2.20;1.20;1.20
35654;PMS1003;21773;50.010;19.972;2023-08-06T15:40:59;2.00;2.00;1.00
35654;PMS1003;21773;50.010;19.972;2023-08-06T15:44:04;2.00;2.00;2.00
35654;PMS1003;21773;50.010;19.972;2023-08-06T15:47:07;2.00;1.75;1.00
35654;PMS1003;21773;50.010;19.972;2023-08-06T15:50:10;1.00;1.00;1.00
35654;PMS1003;21773;50.010;19.972;2023-08-06T15:53:13;0.40;0.40;0.00
35654;PMS1003;21773;50.010;19.972;2023-08-06T15:56:16;1.00;1.00;0.40
35654;PMS1003;21773;50.010;19.972;2023-08-06T15:59:21;2.00;1.00;1.00
35654;PMS1003;21773;50.010;19.972;2023-08-06T16:02:25;1.00;1.00;1.00
35654;PMS1003;21773;50.010;19.972;2023-08-06T16:05:29;0.00;0.00;0.00
35654;PMS1003;21773;50.010;19.972;2023-08-06T16:08:33;1.00;1.00;1.00
35654;PMS1003;21773;50.010;19.972;2023-08-06T16:11:36;1.00;1.00;1.00
35654;PMS1003;21773;50.010;19.972;2023-08-06T16:14:42;2.00;1.00;1.00
35654;PMS1003;21773;50.010;19.972;2023-08-06T16:17:46;2.00;2.00;2.00
35654;PMS1003;21773;50.010;19.972;2023-08-06T16:20:50;3.00;3.00;2.60
35654;PMS1003;21773;50.010;19.972;2023-08-06T16:23:54;3.60;3.60;3.60
35654;PMS1003;21773;50.010;19.972;2023-08-06T16:26:58;2.00;2.00;2.00
35654;PMS1003;21773;50.010;19.972;2023-08-06T16:30:03;3.00;2.60;2.20
35654;PMS1003;21773;50.010;19.972;2023-08-06T16:33:07;2.20;2.20;2.20
35654;PMS1003;21773;50.010;19.972;2023-08-06T16:36:10;2.00;2.00;2.00
35654;PMS1003;21773;50.010;19.972;2023-08-06T16:39:13;3.00;3.00;2.50
35654;PMS1003;21773;50.010;19.972;2023-08-06T16:42:21;3.00;3.00;3.00
35654;PMS1003;21773;50.010;19.972;2023-08-06T16:45:26;3.00;3.00;2.60
35654;PMS1003;21773;50.010;19.972;2023-08-06T16:48:29;5.00;4.00;4.00
35654;PMS1003;21773;50.010;19.972;2023-08-06T16:51:34;1.00;1.00;1.00
35654;PMS1003;21773;50.010;19.972;2023-08-06T16:54:37;2.00;2.00;2.00
35654;PMS1003;21773;50.010;19.972;2023-08-06T16:57:40;2.40;2.00;1.00
35654;PMS1003;21773;50.010;19.972;2023-08-06T17:00:45;2.00;2.00;2.00
35654;PMS1003;21773;50.010;19.972;2023-08-06T17:03:49;2.00;2.00;2.00
35654;PMS1003;21773;50.010;19.972;2023-08-06T17:06:53;0.00;0.00;0.00
35654;PMS1003;21773;50.010;19.972;2023-08-06T17:09:58;1.00;1.00;1.00
35654;PMS1003;21773;50.010;19.972;2023-08-06T17:13:02;1.00;1.00;1.00
35654;PMS1003;21773;50.010;19.972;2023-08-06T17:16:23;1.00;1.00;1.00
35654;PMS1003;21773;50.010;19.972;2023-08-06T17:19:31;2.00;1.80;1.80
35654;PMS1003;21773;50.010;19.972;2023-08-06T17:22:35;0.80;0.80;0.20
35654;PMS1003;21773;50.010;19.972;2023-08-06T17:25:39;1.00;1.00;1.00
35654;PMS1003;21773;50.010;19.972;2023-08-06T17:28:42;1.50;1.00;1.00
35654;PMS1003;21773;50.010;19.972;2023-08-06T17:31:48;1.00;1.00;1.00